createdAt,value
2022-11-24T00:00:52.916Z,99259.19
2022-11-24T00:02:27.446Z,99261.69
2022-11-24T00:04:08.503Z,99257.09
2022-11-24T00:05:41.735Z,99260.44
2022-11-24T00:07:16.138Z,99262.97
2022-11-24T00:08:54.934Z,99267.28
2022-11-24T00:13:19.240Z,99273.28
2022-11-24T00:15:39.988Z,99268.81
2022-11-24T00:17:50.457Z,99267.81
2022-11-24T00:19:50.492Z,99269.50
2022-11-24T00:22:14.018Z,99273.69
2022-11-24T00:23:47.447Z,99271.88
2022-11-24T00:27:49.225Z,99272.72
2022-11-24T00:29:29.357Z,99276.91
2022-11-24T00:30:53.670Z,99277.59
2022-11-24T00:32:21.731Z,99276.47
2022-11-24T00:33:47.314Z,99276.34
2022-11-24T00:35:11.723Z,99285.84
2022-11-24T00:36:36.738Z,99279.56
2022-11-24T00:37:58.377Z,99277.72
2022-11-24T00:39:20.643Z,99282.91
2022-11-24T00:40:44.282Z,99274.81
2022-11-24T00:42:06.812Z,99275.53
2022-11-24T00:43:31.418Z,99274.41
2022-11-24T00:44:57.222Z,99272.59
2022-11-24T00:46:19.995Z,99277.59
2022-11-24T00:47:48.368Z,99278.44
2022-11-24T00:49:17.367Z,99280.97
2022-11-24T00:50:38.881Z,99289.59
2022-11-24T00:52:02.686Z,99284.97
2022-11-24T00:53:32.319Z,99285.84
2022-11-24T00:55:01.752Z,99283.03
2022-11-24T00:56:25.436Z,99276.78
2022-11-24T00:57:55.025Z,99279.25
2022-11-24T00:59:47.997Z,99283.59
2022-11-24T01:01:21.582Z,99279.97
2022-11-24T01:02:52.234Z,99281.50
2022-11-24T01:04:17.632Z,99277.03
2022-11-24T01:05:44.419Z,99276.91
2022-11-24T01:07:06.930Z,99270.59
2022-11-24T01:08:32.865Z,99275.78
2022-11-24T01:09:54.626Z,99260.72
2022-11-24T01:11:24.304Z,99276.47
2022-11-24T01:12:50.868Z,99274.53
2022-11-24T01:14:22.939Z,99273.53
2022-11-24T01:15:45.638Z,99278.72
2022-11-24T01:17:09.993Z,99274.25
2022-11-24T01:18:46.386Z,99277.59
2022-11-24T01:24:14.746Z,99276.59
2022-11-24T01:25:45.767Z,99273.81
2022-11-24T01:27:09.870Z,99284.25
2022-11-24T01:28:31.358Z,99271.88
2022-11-24T01:29:56.970Z,99278.81
2022-11-24T01:31:18.709Z,99283.13
2022-11-24T01:32:47.886Z,99284.84
2022-11-24T01:34:09.294Z,99282.19
2022-11-24T01:35:32.036Z,99282.03
2022-11-24T01:36:52.994Z,99278.25
2022-11-24T01:38:18.631Z,99280.91
2022-11-24T01:39:42.618Z,99280.78
2022-11-24T01:41:05.265Z,99278.94
2022-11-24T01:42:27.502Z,99276.28
2022-11-24T01:43:49.284Z,99286.78
2022-11-24T01:45:44.952Z,99279.78
2022-11-24T01:47:21.317Z,99277.81
2022-11-24T01:48:47.223Z,99287.59
2022-11-24T01:50:15.959Z,99283.13
2022-11-24T01:51:44.548Z,99284.00
2022-11-24T01:53:07.168Z,99287.47
2022-11-24T01:54:33.504Z,99284.81
2022-11-24T01:55:55.469Z,99289.97
2022-11-24T01:57:19.389Z,99293.59
2022-11-24T01:58:43.926Z,99298.06
2022-11-24T02:00:09.512Z,99293.59
2022-11-24T02:01:39.535Z,99294.59
2022-11-24T02:03:03.239Z,99294.59
2022-11-24T02:04:34.998Z,99292.91
2022-11-24T02:06:02.973Z,99292.91
2022-11-24T02:07:51.207Z,99285.94
2022-11-24T02:09:52.791Z,99290.38
2022-11-24T02:11:42.920Z,99280.63
2022-11-24T02:13:53.388Z,99283.13
2022-11-24T02:18:29.850Z,99294.59
2022-11-24T02:23:21.545Z,99280.34
2022-11-24T02:28:20.044Z,99287.47
2022-11-24T02:30:16.743Z,99283.13
2022-11-24T02:33:58.247Z,99275.88
2022-11-24T02:36:19.836Z,99281.19
2022-11-24T02:38:01.166Z,99278.38
2022-11-24T02:39:40.793Z,99273.91
2022-11-24T02:41:19.597Z,99278.22
2022-11-24T02:43:09.495Z,99275.56
2022-11-24T02:44:58.425Z,99271.97
2022-11-24T02:46:19.878Z,99280.63
2022-11-24T02:47:42.135Z,99278.78
2022-11-24T02:49:17.799Z,99276.16
2022-11-24T02:50:40.174Z,99277.81
2022-11-24T02:52:03.021Z,99275.16
2022-11-24T02:53:25.512Z,99284.81
2022-11-24T02:54:49.844Z,99278.63
2022-11-24T02:56:15.465Z,99283.94
2022-11-24T02:57:37.175Z,99286.59
2022-11-24T02:59:02.887Z,99286.59
2022-11-24T03:00:24.413Z,99289.41
2022-11-24T03:01:47.058Z,99291.22
2022-11-24T03:03:11.417Z,99296.78
2022-11-24T03:07:46.055Z,99295.44
2022-11-24T03:09:08.615Z,99295.44
2022-11-24T03:10:31.165Z,99300.72
2022-11-24T03:11:55.276Z,99298.91
2022-11-24T03:13:17.426Z,99302.25
2022-11-24T03:14:40.786Z,99301.25
2022-11-24T03:16:05.806Z,99303.78
2022-11-24T03:17:30.714Z,99307.97
2022-11-24T03:18:53.523Z,99310.47
2022-11-24T03:20:22.553Z,99312.00
2022-11-24T03:22:03.771Z,99307.38
2022-11-24T03:23:30.431Z,99309.78
2022-11-24T03:25:48.516Z,99313.97
2022-11-24T03:27:19.323Z,99304.88
2022-11-24T03:28:41.323Z,99315.19
2022-11-24T03:30:03.504Z,99307.06
2022-11-24T03:31:25.204Z,99306.81
2022-11-24T03:32:52.333Z,99314.59
2022-11-24T03:34:13.545Z,99314.34
2022-11-24T03:35:35.909Z,99310.69
2022-11-24T03:36:58.772Z,99311.38
2022-11-24T03:38:20.171Z,99315.56
2022-11-24T03:39:42.933Z,99313.63
2022-11-24T03:41:04.954Z,99310.78
2022-11-24T03:42:28.637Z,99313.16
2022-11-24T03:45:49.318Z,99317.38
2022-11-24T03:47:14.248Z,99318.88
2022-11-24T03:48:36.270Z,99316.06
2022-11-24T03:49:58.369Z,99323.06
2022-11-24T03:51:54.812Z,99326.84
2022-11-24T03:56:53.551Z,99314.72
2022-11-24T03:58:44.901Z,99315.38
2022-11-24T04:00:24.237Z,99320.69
2022-11-24T04:07:52.959Z,99324.34
2022-11-24T04:23:53.453Z,99314.88
2022-11-24T04:31:56.556Z,99325.09
2022-11-24T04:36:58.309Z,99326.91
2022-11-24T04:41:39.123Z,99343.66
2022-11-24T04:58:31.586Z,99364.59
2022-11-24T05:04:00.633Z,99378.16
2022-11-24T05:11:19.996Z,99382.94
2022-11-24T05:14:28.491Z,99382.78
2022-11-24T05:17:14.494Z,99386.97
2022-11-24T05:34:16.786Z,99390.19
2022-11-24T06:16:33.741Z,99432.19
2022-11-24T06:21:11.988Z,99432.59
2022-11-24T06:22:39.631Z,99445.84
2022-11-24T06:24:03.905Z,99450.19
2022-11-24T06:25:26.589Z,99452.00
2022-11-24T06:26:48.095Z,99447.53
2022-11-24T06:28:18.122Z,99444.88
2022-11-24T06:30:36.693Z,99452.00
2022-11-24T06:32:06.748Z,99452.56
2022-11-24T06:34:01.833Z,99461.19
2022-11-24T06:36:04.212Z,99458.28
2022-11-24T06:41:23.735Z,99478.41
2022-11-24T06:42:59.919Z,99473.94
2022-11-24T06:47:19.895Z,99478.94
2022-11-24T06:49:01.738Z,99484.13
2022-11-24T06:50:42.337Z,99491.09
2022-11-24T06:52:28.423Z,99497.09
2022-11-24T06:54:00.800Z,99503.94
2022-11-24T06:55:33.909Z,99499.47
2022-11-24T06:56:58.752Z,99504.38
2022-11-24T06:58:21.508Z,99506.88
2022-11-24T06:59:44.655Z,99509.13
2022-11-24T07:01:07.905Z,99508.84
2022-11-24T07:02:34.548Z,99510.22
2022-11-24T07:03:58.586Z,99513.47
2022-11-24T07:05:22.139Z,99510.53
2022-11-24T07:06:44.702Z,99510.09
2022-11-24T07:08:07.238Z,99517.66
2022-11-24T07:09:29.182Z,99510.25
2022-11-24T07:10:53.390Z,99519.47
2022-11-24T07:12:18.092Z,99524.34
2022-11-24T07:13:59.659Z,99520.44
2022-11-24T07:15:22.316Z,99524.50
2022-11-24T07:16:45.019Z,99516.25
2022-11-24T07:18:12.611Z,99520.31
2022-11-24T07:19:34.500Z,99520.84
2022-11-24T07:20:56.888Z,99527.56
2022-11-24T07:22:19.306Z,99520.97
2022-11-24T07:23:48.539Z,99524.19
2022-11-24T07:25:14.718Z,99529.06
2022-11-24T07:26:38.414Z,99533.09
2022-11-24T07:28:00.999Z,99532.84
2022-11-24T07:29:22.839Z,99531.56
2022-11-24T07:30:45.178Z,99531.25
2022-11-24T07:32:13.778Z,99531.97
2022-11-24T07:33:36.308Z,99527.34
2022-11-24T07:34:57.731Z,99536.84
2022-11-24T07:36:20.808Z,99533.22
2022-11-24T07:37:50.849Z,99532.09
2022-11-24T07:39:15.275Z,99531.81
2022-11-24T07:40:39.363Z,99532.50
2022-11-24T07:42:05.417Z,99535.81
2022-11-24T07:43:27.697Z,99534.56
2022-11-24T07:44:49.780Z,99530.78
2022-11-24T07:46:51.792Z,99534.00
2022-11-24T07:48:19.803Z,99530.22
2022-11-24T07:49:41.808Z,99528.22
2022-11-24T07:51:04.638Z,99533.28
2022-11-24T07:52:27.058Z,99534.09
2022-11-24T07:53:49.421Z,99535.75
2022-11-24T07:55:11.858Z,99537.28
2022-11-24T07:56:33.825Z,99533.66
2022-11-24T07:58:00.706Z,99534.38
2022-11-24T07:59:22.870Z,99534.19
2022-11-24T08:00:45.700Z,99532.09
2022-11-24T08:02:08.137Z,99531.94
2022-11-24T08:03:30.306Z,99528.16
2022-11-24T08:04:52.197Z,99531.38
2022-11-24T08:06:31.884Z,99531.06
2022-11-24T08:08:06.327Z,99531.75
2022-11-24T08:09:46.528Z,99534.94
2022-11-24T08:11:10.690Z,99533.81
2022-11-24T08:12:33.159Z,99530.84
2022-11-24T08:13:57.243Z,99535.03
2022-11-24T08:15:20.024Z,99533.91
2022-11-24T08:16:49.994Z,99530.97
2022-11-24T08:18:14.280Z,99529.00
2022-11-24T08:26:05.324Z,99546.69
2022-11-24T08:27:27.890Z,99545.28
2022-11-24T08:28:54.278Z,99540.44
2022-11-24T08:30:18.460Z,99548.69
2022-11-24T08:31:46.786Z,99545.63
2022-11-24T08:33:09.451Z,99549.41
2022-11-24T08:34:35.156Z,99547.88
2022-11-24T08:35:58.021Z,99557.00
2022-11-24T08:37:21.615Z,99564.84
2022-11-24T08:38:44.906Z,99559.53
2022-11-24T08:40:08.316Z,99556.56
2022-11-24T08:41:31.532Z,99559.09
2022-11-24T08:42:53.763Z,99557.78
2022-11-24T08:44:18.339Z,99562.69
2022-11-24T08:45:54.668Z,99556.09
2022-11-24T08:47:19.992Z,99564.47
2022-11-24T08:48:45.254Z,99566.69
2022-11-24T08:50:08.244Z,99570.72
2022-11-24T08:51:31.244Z,99567.59
2022-11-24T08:52:55.746Z,99571.66
2022-11-24T08:54:21.899Z,99569.38
2022-11-24T08:55:44.179Z,99570.78
2022-11-24T08:57:06.449Z,99574.81
2022-11-24T08:58:29.586Z,99573.66
2022-11-24T08:59:51.552Z,99575.88
2022-11-24T09:01:17.998Z,99572.09
2022-11-24T09:02:40.229Z,99576.97
2022-11-24T09:04:02.580Z,99583.81
2022-11-24T09:05:50.569Z,99569.38
2022-11-24T09:07:07.562Z,99587.84
2022-11-24T09:08:31.578Z,99578.72
2022-11-24T09:09:53.762Z,99587.41
2022-11-24T09:11:16.520Z,99587.41
2022-11-24T09:12:38.776Z,99586.28
2022-11-24T09:14:08.627Z,99590.47
2022-11-24T09:15:39.268Z,99588.31
2022-11-24T09:17:03.368Z,99587.19
2022-11-24T09:18:30.689Z,99573.41
2022-11-24T09:20:07.516Z,99582.78
2022-11-24T09:21:36.383Z,99573.34
2022-11-24T09:22:58.714Z,99573.56
2022-11-24T09:24:22.256Z,99577.59
2022-11-24T09:25:49.437Z,99577.84
2022-11-24T09:27:11.279Z,99575.53
2022-11-24T09:28:32.680Z,99582.06
2022-11-24T09:29:57.776Z,99580.63
2022-11-24T09:31:20.407Z,99580.00
2022-11-24T09:32:43.712Z,99585.72
2022-11-24T09:34:07.668Z,99584.25
2022-11-24T09:35:29.515Z,99585.44
2022-11-24T09:36:51.875Z,99589.34
2022-11-24T09:38:14.171Z,99587.06
2022-11-24T09:39:36.364Z,99592.75
2022-11-24T09:41:13.030Z,99588.94
2022-11-24T09:42:49.299Z,99586.63
2022-11-24T09:45:05.437Z,99586.66
2022-11-24T09:46:34.704Z,99582.28
2022-11-24T09:48:02.261Z,99581.47
2022-11-24T09:49:32.581Z,99587.84
2022-11-24T09:50:55.686Z,99577.22
2022-11-24T09:52:34.584Z,99574.75
2022-11-24T09:54:07.213Z,99578.13
2022-11-24T09:55:46.066Z,99572.81
2022-11-24T09:57:13.705Z,99573.69
2022-11-24T09:58:43.656Z,99571.88
2022-11-24T10:02:03.566Z,99586.78
2022-11-24T10:08:30.195Z,99576.97
2022-11-24T10:12:54.473Z,99581.50
2022-11-24T10:14:44.759Z,99577.47
2022-11-24T10:16:16.929Z,99583.84
2022-11-24T10:17:57.611Z,99580.00
2022-11-24T10:19:38.310Z,99576.81
2022-11-24T10:21:32.989Z,99584.34
2022-11-24T10:23:13.041Z,99587.16
2022-11-24T10:25:20.836Z,99585.66
2022-11-24T10:28:23.797Z,99577.97
2022-11-24T10:33:30.853Z,99571.75
2022-11-24T10:35:12.976Z,99576.38
2022-11-24T10:36:45.431Z,99583.06
2022-11-24T10:38:31.756Z,99579.88
2022-11-24T10:40:00.720Z,99580.72
2022-11-24T10:41:34.508Z,99588.56
2022-11-24T10:42:59.577Z,99578.72
2022-11-24T10:44:23.656Z,99582.91
2022-11-24T10:45:47.396Z,99588.91
2022-11-24T10:47:26.795Z,99586.09
2022-11-24T10:49:11.336Z,99582.56
2022-11-24T10:50:42.162Z,99581.59
2022-11-24T10:52:11.523Z,99577.06
2022-11-24T10:53:43.661Z,99579.59
2022-11-24T10:55:09.891Z,99575.22
2022-11-24T10:56:52.636Z,99576.06
2022-11-24T10:58:21.585Z,99577.75
2022-11-24T11:02:41.635Z,99585.44
2022-11-24T11:04:18.979Z,99585.09
2022-11-24T11:05:55.873Z,99585.09
2022-11-24T11:07:36.985Z,99585.09
2022-11-24T11:09:32.500Z,99592.28
2022-11-24T11:11:53.169Z,99585.28
2022-11-24T11:13:38.271Z,99591.78
2022-11-24T11:15:23.186Z,99582.06
2022-11-24T11:16:51.014Z,99585.56
2022-11-24T11:18:17.981Z,99586.59
2022-11-24T11:19:50.262Z,99593.78
2022-11-24T11:21:31.420Z,99591.44
2022-11-24T11:22:57.948Z,99587.75
2022-11-24T11:24:22.434Z,99582.41
2022-11-24T11:25:52.095Z,99586.09
2022-11-24T11:31:20.301Z,99579.72
2022-11-24T11:38:47.104Z,99587.88
2022-11-24T11:40:47.819Z,99585.53
2022-11-24T11:42:53.763Z,99583.00
2022-11-24T11:44:37.812Z,99587.53
2022-11-24T11:46:10.129Z,99584.16
2022-11-24T11:47:42.810Z,99585.00
2022-11-24T11:49:08.968Z,99586.84
2022-11-24T11:51:06.786Z,99594.00
2022-11-24T11:53:13.633Z,99598.53
2022-11-24T11:55:35.880Z,99594.00
2022-11-24T11:57:18.862Z,99594.84
2022-11-24T11:59:13.635Z,99593.00
2022-11-24T12:00:44.474Z,99599.03
2022-11-24T12:02:51.660Z,99593.53
2022-11-24T12:08:31.333Z,99596.38
2022-11-24T12:15:34.157Z,99590.41
2022-11-24T12:17:05.661Z,99589.09
2022-11-24T12:18:58.727Z,99589.59
2022-11-24T12:21:12.719Z,99585.63
2022-11-24T12:22:45.232Z,99591.97
2022-11-24T12:24:24.813Z,99583.47
2022-11-24T12:28:34.881Z,99590.00
2022-11-24T12:30:11.288Z,99591.31
2022-11-24T12:31:56.550Z,99592.00
2022-11-24T12:34:18.830Z,99592.81
2022-11-24T12:35:54.986Z,99591.69
2022-11-24T12:38:20.699Z,99589.00
2022-11-24T12:40:04.820Z,99589.00
2022-11-24T12:56:52.857Z,99611.84
2022-11-24T12:58:30.670Z,99610.16
2022-11-24T13:00:18.501Z,99603.31
2022-11-24T13:02:21.977Z,99597.47
2022-11-24T13:04:07.431Z,99604.66
2022-11-24T13:05:56.109Z,99607.47
2022-11-24T13:07:23.213Z,99605.13
2022-11-24T13:09:02.959Z,99607.81
2022-11-24T13:10:56.343Z,99601.09
2022-11-24T13:12:38.783Z,99613.63
2022-11-24T13:14:49.106Z,99612.13
2022-11-24T13:16:36.303Z,99611.59
2022-11-24T13:18:12.453Z,99615.28
2022-11-24T13:20:45.056Z,99616.44
2022-11-24T13:22:56.368Z,99621.41
2022-11-24T13:24:36.141Z,99627.72
2022-11-24T13:26:31.427Z,99622.56
2022-11-24T13:28:00.105Z,99625.25
2022-11-24T13:29:43.519Z,99624.56
2022-11-24T13:31:13.439Z,99623.72
2022-11-24T13:33:08.230Z,99622.03
2022-11-24T13:35:32.829Z,99624.06
2022-11-24T13:39:41.169Z,99625.03
2022-11-24T13:41:06.264Z,99617.34
2022-11-24T13:43:04.156Z,99616.00
2022-11-24T13:45:08.011Z,99621.66
2022-11-24T13:47:27.153Z,99624.97
2022-11-24T13:52:41.956Z,99631.09
2022-11-24T14:01:31.859Z,99630.22
2022-11-24T14:04:31.884Z,99624.38
2022-11-24T14:06:25.177Z,99631.50
2022-11-24T14:08:59.690Z,99642.38
2022-11-24T14:11:31.446Z,99652.34
2022-11-24T14:13:41.887Z,99650.66
2022-11-24T14:16:01.223Z,99647.34
2022-11-24T14:17:42.207Z,99644.66
2022-11-24T14:19:13.242Z,99650.97
2022-11-24T14:20:36.488Z,99651.97
2022-11-24T14:21:59.144Z,99652.97
2022-11-24T14:23:31.694Z,99661.97
2022-11-24T14:25:07.669Z,99663.81
2022-11-24T14:26:44.278Z,99665.78
2022-11-24T14:28:31.741Z,99663.25
2022-11-24T14:30:08.539Z,99670.59
2022-11-24T14:31:36.577Z,99669.88
2022-11-24T14:32:59.006Z,99660.50
2022-11-24T14:34:41.308Z,99665.16
2022-11-24T14:36:26.499Z,99667.13
2022-11-24T14:37:49.292Z,99667.31
2022-11-24T14:39:15.823Z,99663.97
2022-11-24T14:40:46.589Z,99669.44
2022-11-24T14:42:20.161Z,99676.78
2022-11-24T14:43:43.092Z,99685.75
2022-11-24T14:45:11.295Z,99678.91
2022-11-24T14:46:36.166Z,99683.53
2022-11-24T14:48:03.821Z,99685.50
2022-11-24T14:49:36.090Z,99681.50
2022-11-24T14:51:15.163Z,99677.31
2022-11-24T14:52:46.667Z,99682.78
2022-11-24T14:54:28.183Z,99688.28
2022-11-24T14:56:21.505Z,99687.75
2022-11-24T14:57:48.521Z,99690.56
2022-11-24T14:59:26.610Z,99691.69
2022-11-24T15:01:11.229Z,99690.16
2022-11-24T15:02:44.413Z,99682.47
2022-11-24T15:04:32.339Z,99686.97
2022-11-24T15:06:04.617Z,99693.59
2022-11-24T15:07:30.255Z,99690.94
2022-11-24T15:08:52.957Z,99698.25
2022-11-24T15:10:35.515Z,99693.91
2022-11-24T15:12:48.406Z,99689.03
2022-11-24T15:14:39.427Z,99700.69
2022-11-24T15:16:04.952Z,99699.84
2022-11-24T15:17:40.415Z,99704.19
2022-11-24T15:19:12.090Z,99701.66
2022-11-24T15:20:51.112Z,99701.81
2022-11-24T15:22:38.171Z,99709.97
2022-11-24T15:24:08.958Z,99711.78
2022-11-24T15:25:37.498Z,99711.78
2022-11-24T15:27:03.197Z,99711.94
2022-11-24T15:28:29.842Z,99707.59
2022-11-24T15:29:52.144Z,99709.44
2022-11-24T15:31:30.960Z,99708.59
2022-11-24T15:32:56.878Z,99716.59
2022-11-24T15:36:35.206Z,99717.72
2022-11-24T15:38:02.643Z,99723.03
2022-11-24T15:39:24.999Z,99724.03
2022-11-24T15:40:50.188Z,99719.72
2022-11-24T15:42:14.531Z,99729.50
2022-11-24T15:43:57.611Z,99732.34
2022-11-24T15:45:24.089Z,99733.47
2022-11-24T15:46:46.336Z,99732.63
2022-11-24T15:48:12.372Z,99735.31
2022-11-24T15:49:41.371Z,99736.28
2022-11-24T15:51:07.486Z,99730.94
2022-11-24T15:52:29.826Z,99732.63
2022-11-24T15:54:00.401Z,99732.63
2022-11-24T15:55:25.549Z,99737.09
2022-11-24T15:56:50.509Z,99730.81
2022-11-24T15:58:14.292Z,99729.09
2022-11-24T15:59:39.372Z,99734.44
2022-11-24T16:01:01.917Z,99737.09
2022-11-24T16:02:29.053Z,99736.44
2022-11-24T16:03:51.914Z,99738.25
2022-11-24T16:05:27.304Z,99744.56
2022-11-24T16:06:58.703Z,99738.41
2022-11-24T16:08:21.179Z,99751.72
2022-11-24T16:09:44.962Z,99742.03
2022-11-24T16:11:06.467Z,99745.69
2022-11-24T16:12:32.206Z,99739.53
2022-11-24T16:13:54.934Z,99749.34
2022-11-24T16:15:17.534Z,99749.19
2022-11-24T16:16:41.183Z,99744.00
2022-11-24T16:18:11.692Z,99742.34
2022-11-24T16:19:41.675Z,99750.34
2022-11-24T16:21:27.148Z,99745.16
2022-11-24T16:23:07.057Z,99747.13
2022-11-24T16:24:38.677Z,99747.13
2022-11-24T16:26:09.154Z,99747.13
2022-11-24T16:27:35.894Z,99752.59
2022-11-24T16:29:04.584Z,99753.44
2022-11-24T16:30:29.474Z,99749.09
2022-11-24T16:31:59.332Z,99753.44
2022-11-24T16:33:26.049Z,99759.59
2022-11-24T16:34:50.164Z,99756.09
2022-11-24T16:36:21.963Z,99753.31
2022-11-24T16:37:51.859Z,99759.47
2022-11-24T16:39:31.552Z,99763.94
2022-11-24T16:48:37.246Z,99755.97
2022-11-24T17:07:22.606Z,99790.88
2022-11-24T17:08:55.274Z,99792.56
2022-11-24T17:11:04.558Z,99794.38
2022-11-24T17:13:03.451Z,99793.38
2022-11-24T17:14:29.343Z,99799.84
2022-11-24T17:16:01.340Z,99799.72
2022-11-24T17:17:31.316Z,99802.38
2022-11-24T17:19:02.036Z,99805.72
2022-11-24T17:20:47.757Z,99797.88
2022-11-24T17:22:18.031Z,99804.88
2022-11-24T17:23:46.249Z,99815.53
2022-11-24T17:25:11.546Z,99811.88
2022-11-24T17:26:36.092Z,99809.22
2022-11-24T17:29:01.033Z,99811.88
2022-11-24T17:34:12.812Z,99818.19
2022-11-24T17:36:04.894Z,99816.53
2022-11-24T17:37:32.370Z,99816.53
2022-11-24T17:38:54.241Z,99819.03
2022-11-24T17:40:28.271Z,99821.72
2022-11-24T17:42:03.966Z,99821.00
2022-11-24T17:43:36.888Z,99819.19
2022-11-24T17:45:02.052Z,99819.19
2022-11-24T17:47:39.906Z,99823.81
2022-11-24T17:52:43.473Z,99825.09
2022-11-24T18:00:09.411Z,99831.13
2022-11-24T18:01:39.660Z,99836.91
2022-11-24T18:03:21.612Z,99842.50
2022-11-24T18:04:47.191Z,99837.47
2022-11-24T18:06:18.527Z,99839.31
2022-11-24T18:07:43.378Z,99841.25
2022-11-24T18:09:09.470Z,99849.25
2022-11-24T18:10:38.770Z,99851.09
2022-11-24T18:12:17.046Z,99841.25
2022-11-24T18:13:56.603Z,99848.41
2022-11-24T18:15:25.585Z,99847.59
2022-11-24T18:16:53.344Z,99846.72
2022-11-24T18:18:14.945Z,99853.75
2022-11-24T18:22:50.077Z,99856.41
2022-11-24T18:24:24.227Z,99856.28
2022-11-24T18:26:01.981Z,99859.06
2022-11-24T18:31:25.375Z,99861.59
2022-11-24T18:33:24.680Z,99862.56
2022-11-24T18:35:21.476Z,99861.44
2022-11-24T18:36:53.634Z,99856.94
2022-11-24T18:38:36.039Z,99854.16
2022-11-24T18:40:16.229Z,99855.81
2022-11-24T18:41:58.325Z,99855.69
2022-11-24T18:43:20.971Z,99860.72
2022-11-24T18:44:55.838Z,99858.75
2022-11-24T18:47:24.879Z,99857.75
2022-11-24T18:49:16.312Z,99854.81
2022-11-24T18:51:15.079Z,99854.53
2022-11-24T18:52:40.578Z,99856.06
2022-11-24T18:54:06.946Z,99852.41
2022-11-24T18:55:30.792Z,99855.94
2022-11-24T18:56:53.386Z,99848.59
2022-11-24T18:58:16.136Z,99855.47
2022-11-24T18:59:38.496Z,99849.19
2022-11-24T19:01:07.661Z,99853.38
2022-11-24T19:02:30.254Z,99852.38
2022-11-24T19:03:57.800Z,99856.72
2022-11-24T19:05:27.531Z,99852.94
2022-11-24T19:06:50.304Z,99852.78
2022-11-24T19:08:12.584Z,99852.63
2022-11-24T19:09:34.631Z,99857.84
2022-11-24T19:10:58.128Z,99855.16
2022-11-24T19:12:20.319Z,99861.03
2022-11-24T19:13:42.417Z,99858.22
2022-11-24T19:15:05.005Z,99859.91
2022-11-24T19:16:27.877Z,99859.75
2022-11-24T19:17:50.429Z,99858.75
2022-11-24T19:19:15.435Z,99861.44
2022-11-24T19:20:38.319Z,99858.75
2022-11-24T19:22:03.129Z,99861.13
2022-11-24T19:23:25.533Z,99862.00
2022-11-24T19:24:47.917Z,99853.13
2022-11-24T19:26:11.411Z,99861.28
2022-11-24T19:27:35.479Z,99862.00
2022-11-24T19:28:58.189Z,99869.00
2022-11-24T19:30:20.923Z,99861.00
2022-11-24T19:31:44.067Z,99858.19
2022-11-24T19:33:08.565Z,99867.03
2022-11-24T19:34:30.905Z,99871.34
2022-11-24T19:36:00.872Z,99867.84
2022-11-24T19:37:23.658Z,99867.03
2022-11-24T19:38:51.351Z,99870.38
2022-11-24T19:40:14.701Z,99869.81
2022-11-24T19:41:38.303Z,99869.81
2022-11-24T19:43:00.317Z,99876.97
2022-11-24T19:44:25.571Z,99871.78
2022-11-24T19:45:47.664Z,99879.78
2022-11-24T19:47:11.755Z,99883.44
2022-11-24T19:48:34.721Z,99878.13
2022-11-24T19:49:57.215Z,99889.78
2022-11-24T19:51:21.349Z,99891.44
2022-11-24T19:53:01.626Z,99889.78
2022-11-24T19:54:24.947Z,99891.56
2022-11-24T19:55:48.986Z,99889.78
2022-11-24T19:57:12.816Z,99893.28
2022-11-24T19:58:36.823Z,99888.91
2022-11-24T19:59:59.558Z,99903.09
2022-11-24T20:01:23.374Z,99899.44
2022-11-24T20:02:45.808Z,99898.59
2022-11-24T20:04:10.504Z,99898.59
2022-11-24T20:05:35.378Z,99904.88
2022-11-24T20:07:00.413Z,99901.38
2022-11-24T20:08:23.681Z,99910.22
2022-11-24T20:09:47.483Z,99910.38
2022-11-24T20:11:11.445Z,99913.31
2022-11-24T20:12:35.655Z,99907.31
2022-11-24T20:13:58.996Z,99911.13
2022-11-24T20:15:24.038Z,99911.38
2022-11-24T20:16:47.948Z,99916.16
2022-11-24T20:18:10.698Z,99917.28
2022-11-24T20:19:32.891Z,99919.25
2022-11-24T20:20:55.154Z,99922.06
2022-11-24T20:22:17.474Z,99922.22
2022-11-24T20:23:46.360Z,99925.84
2022-11-24T20:25:16.584Z,99922.34
2022-11-24T20:26:43.956Z,99925.84
2022-11-24T20:28:08.391Z,99921.38
2022-11-24T20:29:34.426Z,99932.88
2022-11-24T20:31:15.348Z,99931.03
2022-11-24T20:32:40.667Z,99931.88
2022-11-24T20:34:04.354Z,99926.41
2022-11-24T20:35:26.348Z,99933.41
2022-11-24T20:36:49.666Z,99940.44
2022-11-24T20:38:11.683Z,99948.25
2022-11-24T20:39:33.588Z,99943.63
2022-11-24T20:41:08.953Z,99940.00
2022-11-24T20:42:32.848Z,99938.88
2022-11-24T20:44:08.722Z,99934.38
2022-11-24T20:45:37.453Z,99942.91
2022-11-24T20:47:01.427Z,99940.94
2022-11-24T20:48:22.642Z,99931.00
2022-11-24T20:49:47.791Z,99933.38
2022-11-24T20:51:10.879Z,99941.22
2022-11-24T20:52:35.138Z,99935.59
2022-11-24T20:54:02.716Z,99944.44
2022-11-24T20:55:25.183Z,99939.94
2022-11-24T20:56:48.742Z,99947.25
2022-11-24T20:58:28.498Z,99948.09
2022-11-24T21:00:10.403Z,99950.59
2022-11-24T21:01:42.771Z,99951.44
2022-11-24T21:03:14.075Z,99953.94
2022-11-24T21:04:47.711Z,99953.00
2022-11-24T21:06:22.575Z,99955.50
2022-11-24T21:07:45.221Z,99957.19
2022-11-24T21:09:14.097Z,99951.69
2022-11-24T21:10:50.911Z,99960.38
2022-11-24T21:12:23.696Z,99951.41
2022-11-24T21:13:47.873Z,99952.97
2022-11-24T21:15:39.493Z,99953.78
2022-11-24T21:17:05.296Z,99956.16
2022-11-24T21:18:56.842Z,99956.84
2022-11-24T21:20:29.826Z,99957.56
2022-11-24T21:22:07.866Z,99961.88
2022-11-24T21:23:30.645Z,99958.94
2022-11-24T21:25:36.056Z,99960.47
2022-11-24T21:27:24.494Z,99963.81
2022-11-24T21:29:01.725Z,99964.53
2022-11-24T21:30:28.222Z,99963.38
2022-11-24T21:32:15.917Z,99971.09
2022-11-24T21:33:58.034Z,99967.44
2022-11-24T21:35:26.820Z,99966.31
2022-11-24T21:36:52.614Z,99967.84
2022-11-24T21:38:15.386Z,99970.22
2022-11-24T21:39:37.831Z,99970.09
2022-11-24T21:41:00.943Z,99962.75
2022-11-24T21:42:26.214Z,99966.94
2022-11-24T21:43:51.945Z,99966.81
2022-11-24T21:45:16.573Z,99965.81
2022-11-24T21:46:45.687Z,99972.66
2022-11-24T21:48:10.042Z,99965.38
2022-11-24T21:49:35.685Z,99975.91
2022-11-24T21:51:06.124Z,99967.91
2022-11-24T21:52:29.171Z,99968.59
2022-11-24T21:53:51.612Z,99977.31
2022-11-24T21:55:32.206Z,99976.31
2022-11-24T21:56:55.887Z,99981.53
2022-11-24T21:58:26.999Z,99977.84
2022-11-24T22:00:06.142Z,99975.06
2022-11-24T22:01:34.885Z,99975.06
2022-11-24T22:02:57.525Z,99977.72
2022-11-24T22:04:19.441Z,99977.56
2022-11-24T22:05:41.841Z,99977.56
2022-11-24T22:07:10.172Z,99983.59
2022-11-24T22:08:32.609Z,99979.91
2022-11-24T22:10:02.046Z,99976.28
2022-11-24T22:11:33.001Z,99980.63
2022-11-24T22:12:58.110Z,99977.13
2022-11-24T22:14:22.921Z,99974.31
2022-11-24T22:15:48.319Z,99974.97
2022-11-24T22:17:16.979Z,99982.00
2022-11-24T22:18:48.173Z,99978.34
2022-11-24T22:20:13.499Z,99980.03
2022-11-24T22:21:39.930Z,99987.03
2022-11-24T22:23:00.820Z,99990.53
2022-11-24T22:24:28.185Z,99981.69
2022-11-24T22:25:52.008Z,99986.19
2022-11-24T22:27:13.847Z,99991.53
2022-11-24T22:28:37.212Z,99992.38
2022-11-24T22:29:59.539Z,99979.03
2022-11-24T22:31:22.775Z,99979.03
2022-11-24T22:32:44.870Z,99974.69
2022-11-24T22:34:08.888Z,99984.38
2022-11-24T22:35:29.789Z,99987.03
2022-11-24T22:36:51.758Z,99989.56
2022-11-24T22:38:14.011Z,99987.88
2022-11-24T22:39:35.718Z,99988.03
2022-11-24T22:41:02.878Z,99981.69
2022-11-24T22:42:27.631Z,99986.91